createdAt,value
2018-10-15T00:00:35.062Z,8.70
2018-10-15T00:01:35.081Z,9.50
2018-10-15T00:02:35.104Z,8.60
2018-10-15T00:03:35.125Z,12.30
2018-10-15T00:04:35.147Z,10.30
2018-10-15T00:05:35.169Z,9.40
2018-10-15T00:06:35.241Z,11.40
2018-10-15T00:07:35.212Z,11.20
2018-10-15T00:08:35.234Z,9.70
2018-10-15T00:09:35.256Z,10.00
2018-10-15T00:10:35.278Z,9.80
2018-10-15T00:11:35.300Z,12.80
2018-10-15T00:12:35.322Z,10.00
2018-10-15T00:13:35.343Z,10.20
2018-10-15T00:14:35.365Z,10.10
2018-10-15T00:15:35.386Z,11.00
2018-10-15T00:16:35.412Z,10.90
2018-10-15T00:17:35.430Z,11.20
2018-10-15T00:18:35.453Z,14.30
2018-10-15T00:19:35.473Z,9.90
2018-10-15T00:20:35.495Z,12.50
2018-10-15T00:21:35.520Z,13.90
2018-10-15T00:22:35.540Z,13.10
2018-10-15T00:23:35.564Z,11.40
2018-10-15T00:24:35.589Z,10.50
2018-10-15T00:25:35.604Z,11.10
2018-10-15T00:26:35.628Z,11.30
2018-10-15T00:27:35.648Z,9.30
2018-10-15T00:28:35.670Z,9.60
2018-10-15T00:29:35.692Z,9.30
2018-10-15T00:30:35.714Z,10.90
2018-10-15T00:31:35.735Z,9.50
2018-10-15T00:32:35.757Z,12.70
2018-10-15T00:33:35.779Z,9.60
2018-10-15T00:34:35.802Z,10.60
2018-10-15T00:35:35.823Z,9.40
2018-10-15T00:36:35.844Z,10.60
2018-10-15T00:37:35.868Z,11.90
2018-10-15T00:38:35.888Z,12.20
2018-10-15T00:39:35.914Z,10.80
2018-10-15T00:40:35.931Z,10.40
2018-10-15T00:41:35.953Z,10.60
2018-10-15T00:42:35.975Z,9.90
2018-10-15T00:43:35.997Z,9.70
2018-10-15T00:44:36.018Z,11.10
2018-10-15T00:45:36.040Z,10.00
2018-10-15T00:46:36.064Z,10.80
2018-10-15T00:47:36.083Z,14.30
2018-10-15T00:48:36.106Z,11.00
2018-10-15T00:49:36.128Z,12.00
2018-10-15T00:50:36.155Z,10.10
2018-10-15T00:51:36.170Z,9.90
2018-10-15T00:52:36.191Z,10.50
2018-10-15T00:53:36.214Z,11.30
2018-10-15T00:54:36.236Z,12.50
2018-10-15T00:55:36.305Z,10.40
2018-10-15T00:56:36.279Z,10.70
2018-10-15T00:57:36.301Z,11.00
2018-10-15T00:58:36.322Z,11.10
2018-10-15T00:59:36.343Z,11.30
2018-10-15T01:00:36.365Z,10.60
2018-10-15T01:01:36.387Z,11.30
2018-10-15T01:02:36.409Z,11.30
2018-10-15T01:03:36.448Z,13.20
2018-10-15T01:04:36.451Z,11.60
2018-10-15T01:05:36.477Z,12.70
2018-10-15T01:06:36.496Z,11.60
2018-10-15T01:07:36.515Z,10.90
2018-10-15T01:08:36.538Z,11.30
2018-10-15T01:09:36.560Z,12.90
2018-10-15T01:10:36.582Z,12.40
2018-10-15T01:11:36.602Z,13.70
2018-10-15T01:12:36.628Z,11.90
2018-10-15T01:13:36.645Z,12.50
2018-10-15T01:14:36.669Z,13.00
2018-10-15T01:15:36.688Z,12.10
2018-10-15T01:16:36.710Z,14.60
2018-10-15T01:17:36.733Z,12.40
2018-10-15T01:18:36.756Z,11.20
2018-10-15T01:19:36.780Z,11.40
2018-10-15T01:20:36.796Z,12.70
2018-10-15T01:21:36.818Z,11.10
2018-10-15T01:22:36.840Z,11.90
2018-10-15T01:23:36.860Z,12.00
2018-10-15T01:24:36.882Z,12.30
2018-10-15T01:25:36.903Z,12.60
2018-10-15T01:26:36.926Z,13.10
2018-10-15T01:27:36.946Z,13.40
2018-10-15T01:28:36.969Z,12.10
2018-10-15T01:29:36.990Z,11.70
2018-10-15T01:30:37.011Z,14.10
2018-10-15T01:31:37.031Z,12.50
2018-10-15T01:32:37.053Z,13.00
2018-10-15T01:33:37.075Z,11.90
2018-10-15T01:34:37.097Z,11.60
2018-10-15T01:35:37.121Z,14.40
2018-10-15T01:36:37.139Z,12.70
2018-10-15T01:37:37.161Z,13.50
2018-10-15T01:38:37.182Z,11.70
2018-10-15T01:39:37.203Z,13.30
2018-10-15T01:40:37.226Z,13.60
2018-10-15T01:41:37.247Z,12.10
2018-10-15T01:42:37.271Z,11.80
2018-10-15T01:43:37.289Z,12.60
2018-10-15T01:44:37.309Z,12.20
2018-10-15T01:45:37.334Z,12.70
2018-10-15T01:46:37.354Z,11.90
2018-10-15T01:47:37.373Z,13.70
2018-10-15T01:48:37.396Z,13.70
2018-10-15T01:49:37.417Z,14.20
2018-10-15T01:50:37.439Z,11.70
2018-10-15T01:51:37.459Z,13.70
2018-10-15T01:52:37.530Z,12.60
2018-10-15T01:53:37.502Z,16.30
2018-10-15T01:54:37.524Z,15.00
2018-10-15T01:55:37.545Z,12.00
2018-10-15T01:56:37.566Z,14.70
2018-10-15T01:57:37.587Z,12.80
2018-10-15T01:58:37.608Z,13.00
2018-10-15T01:59:37.629Z,13.00
2018-10-15T02:00:37.650Z,14.40
2018-10-15T02:01:37.672Z,12.30
2018-10-15T02:02:37.696Z,12.00
2018-10-15T02:03:37.714Z,11.90
2018-10-15T02:04:37.735Z,11.50
2018-10-15T02:05:37.756Z,13.10
2018-10-15T02:06:37.778Z,11.90
2018-10-15T02:07:37.798Z,15.20
2018-10-15T02:08:37.819Z,12.70
2018-10-15T02:09:37.843Z,15.80
2018-10-15T02:10:37.912Z,13.80
2018-10-15T02:11:37.883Z,13.40
2018-10-15T02:12:37.906Z,12.60
2018-10-15T02:13:37.925Z,14.30
2018-10-15T02:14:37.947Z,12.40
2018-10-15T02:15:37.967Z,12.80
2018-10-15T02:16:37.989Z,12.70
2018-10-15T02:17:38.010Z,14.50
2018-10-15T02:18:38.032Z,13.20
2018-10-15T02:19:38.053Z,12.80
2018-10-15T02:20:38.074Z,13.90
2018-10-15T02:21:38.095Z,13.60
2018-10-15T02:22:38.116Z,17.00
2018-10-15T02:23:38.138Z,15.70
2018-10-15T02:24:38.162Z,14.40
2018-10-15T02:25:38.182Z,12.10
2018-10-15T02:26:38.201Z,13.20
2018-10-15T02:27:38.221Z,12.30
2018-10-15T02:28:38.242Z,13.70
2018-10-15T02:29:38.264Z,12.80
2018-10-15T02:30:38.284Z,13.10
2018-10-15T02:31:38.305Z,13.10
2018-10-15T02:32:38.326Z,14.20
2018-10-15T02:33:38.347Z,15.50
2018-10-15T02:34:38.381Z,14.70
2018-10-15T02:35:38.389Z,12.90
2018-10-15T02:36:38.410Z,13.10
2018-10-15T02:37:38.436Z,15.20
2018-10-15T02:38:38.453Z,13.10
2018-10-15T02:39:38.473Z,11.80
2018-10-15T02:40:38.494Z,13.40
2018-10-15T02:41:38.516Z,14.10
2018-10-15T02:42:38.537Z,13.90
2018-10-15T02:43:38.557Z,13.30
2018-10-15T02:44:38.578Z,14.50
2018-10-15T02:45:38.600Z,12.50
2018-10-15T02:46:38.621Z,12.20
2018-10-15T02:47:38.641Z,12.30
2018-10-15T02:48:38.662Z,13.50
2018-10-15T02:49:38.683Z,12.60
2018-10-15T02:50:38.704Z,12.00
2018-10-15T02:51:38.725Z,12.90
2018-10-15T02:52:38.747Z,13.70
2018-10-15T02:53:38.767Z,13.50
2018-10-15T02:54:38.792Z,13.80
2018-10-15T02:55:38.810Z,15.50
2018-10-15T02:56:38.829Z,12.90
2018-10-15T02:57:38.850Z,13.10
2018-10-15T02:58:38.871Z,13.30
2018-10-15T02:59:38.892Z,14.90
2018-10-15T03:00:38.913Z,15.20
2018-10-15T03:01:38.934Z,15.60
2018-10-15T03:02:38.956Z,16.30
2018-10-15T03:03:38.975Z,13.90
2018-10-15T03:04:38.998Z,15.10
2018-10-15T03:05:39.023Z,13.70
2018-10-15T03:06:39.039Z,13.60
2018-10-15T03:07:39.064Z,13.50
2018-10-15T03:08:39.081Z,14.10
2018-10-15T03:09:39.101Z,13.60
2018-10-15T03:10:39.122Z,12.80
2018-10-15T03:11:39.145Z,12.90
2018-10-15T03:12:39.164Z,16.30
2018-10-15T03:13:39.184Z,13.60
2018-10-15T03:14:39.206Z,14.50
2018-10-15T03:15:39.226Z,13.20
2018-10-15T03:16:39.247Z,14.60
2018-10-15T03:17:39.267Z,14.50
2018-10-15T03:18:39.289Z,13.80
2018-10-15T03:19:39.310Z,14.20
2018-10-15T03:20:39.329Z,13.50
2018-10-15T03:21:39.351Z,14.80
2018-10-15T03:22:39.373Z,14.90
2018-10-15T03:23:39.392Z,21.80
2018-10-15T03:24:39.415Z,14.90
2018-10-15T03:25:39.435Z,14.70
2018-10-15T03:26:39.455Z,13.70
2018-10-15T03:27:39.475Z,13.80
2018-10-15T03:28:39.496Z,13.20
2018-10-15T03:29:39.518Z,14.70
2018-10-15T03:30:39.543Z,14.10
2018-10-15T03:31:39.559Z,13.20
2018-10-15T03:32:39.580Z,14.60
2018-10-15T03:33:39.601Z,15.20
2018-10-15T03:34:39.623Z,16.40
2018-10-15T03:35:39.653Z,14.90
2018-10-15T03:36:39.663Z,17.70
2018-10-15T03:37:39.684Z,16.30
2018-10-15T03:38:39.705Z,17.40
2018-10-15T03:39:39.724Z,17.80
2018-10-15T03:40:39.746Z,16.20
2018-10-15T03:41:39.767Z,16.50
2018-10-15T03:42:39.787Z,13.70
2018-10-15T03:43:39.808Z,16.60
2018-10-15T03:44:39.829Z,13.50
2018-10-15T03:45:39.849Z,13.70
2018-10-15T03:46:39.870Z,14.70
2018-10-15T03:47:39.890Z,16.30
2018-10-15T03:48:39.921Z,16.00
2018-10-15T03:49:39.933Z,13.80
2018-10-15T03:50:39.954Z,16.40
2018-10-15T03:51:39.974Z,14.00
2018-10-15T03:52:39.995Z,14.90
2018-10-15T03:53:40.016Z,15.00
2018-10-15T03:54:40.037Z,14.10
2018-10-15T03:55:40.057Z,15.10
2018-10-15T03:56:40.081Z,14.70
2018-10-15T03:57:40.099Z,16.90
2018-10-15T03:58:40.120Z,14.20
2018-10-15T03:59:40.140Z,14.60
2018-10-15T04:00:40.161Z,13.20
2018-10-15T04:01:40.185Z,13.60
2018-10-15T04:02:40.203Z,14.20
2018-10-15T04:03:40.223Z,16.50
2018-10-15T04:04:40.247Z,16.70
2018-10-15T04:05:40.265Z,17.50
2018-10-15T04:06:40.287Z,14.80
2018-10-15T04:07:40.306Z,16.50
2018-10-15T04:08:40.403Z,15.20
2018-10-15T04:09:40.348Z,18.90
2018-10-15T04:10:40.369Z,17.00
2018-10-15T04:11:40.389Z,23.00
2018-10-15T04:12:40.410Z,16.40
2018-10-15T04:13:40.531Z,15.70
2018-10-15T04:14:40.511Z,16.60
2018-10-15T04:15:40.473Z,16.30
2018-10-15T04:16:40.493Z,19.80
2018-10-15T04:17:40.513Z,18.80
2018-10-15T04:18:40.535Z,15.90
2018-10-15T04:19:40.555Z,16.20
2018-10-15T04:20:40.575Z,20.10
2018-10-15T04:21:40.603Z,21.80
2018-10-15T04:22:40.617Z,15.50
2018-10-15T04:23:40.642Z,14.40
2018-10-15T04:24:40.659Z,15.80
2018-10-15T04:25:40.678Z,16.00
2018-10-15T04:26:40.702Z,16.10
2018-10-15T04:27:40.719Z,19.90
2018-10-15T04:28:40.743Z,17.30
2018-10-15T04:29:40.761Z,17.50
2018-10-15T04:30:40.781Z,16.00
2018-10-15T04:31:40.802Z,18.00
2018-10-15T04:32:40.822Z,15.60
2018-10-15T04:33:40.843Z,17.70
2018-10-15T04:34:40.864Z,15.50
2018-10-15T04:35:40.883Z,16.50
2018-10-15T04:36:40.904Z,14.80
2018-10-15T04:37:40.961Z,16.50
2018-10-15T04:38:40.946Z,14.00
2018-10-15T04:39:40.965Z,16.60
2018-10-15T04:40:40.988Z,16.40
2018-10-15T04:41:41.008Z,16.70
2018-10-15T04:42:41.028Z,16.00
2018-10-15T04:43:41.048Z,15.40
2018-10-15T04:44:41.069Z,17.00
2018-10-15T04:45:41.140Z,15.20
2018-10-15T04:46:41.108Z,14.70
2018-10-15T04:47:41.129Z,18.70
2018-10-15T04:48:41.150Z,16.60
2018-10-15T04:49:41.312Z,15.80
2018-10-15T04:50:41.193Z,15.80
2018-10-15T04:51:41.217Z,15.90
2018-10-15T04:52:41.233Z,18.20
2018-10-15T04:53:41.256Z,19.80
2018-10-15T04:54:41.275Z,16.50
2018-10-15T04:55:41.294Z,18.60
2018-10-15T04:56:41.315Z,16.10
2018-10-15T04:57:41.336Z,16.90
2018-10-15T04:58:41.356Z,16.80
2018-10-15T04:59:41.375Z,16.30
2018-10-15T05:00:41.397Z,16.00
2018-10-15T05:01:41.419Z,17.30
2018-10-15T05:02:41.438Z,16.20
2018-10-15T05:03:41.459Z,18.70
2018-10-15T05:04:41.478Z,18.60
2018-10-15T05:05:41.498Z,20.80
2018-10-15T05:06:41.520Z,24.10
2018-10-15T05:07:41.539Z,16.50
2018-10-15T05:08:41.560Z,21.00
2018-10-15T05:09:41.724Z,18.90
2018-10-15T05:10:41.600Z,19.10
2018-10-15T05:11:41.620Z,22.80
2018-10-15T05:12:41.641Z,17.80
2018-10-15T05:13:41.662Z,18.50
2018-10-15T05:14:41.683Z,18.20
2018-10-15T05:15:41.702Z,16.60
2018-10-15T05:16:41.722Z,21.10
2018-10-15T05:17:41.744Z,22.40
2018-10-15T05:18:41.765Z,18.30
2018-10-15T05:19:41.783Z,18.30
2018-10-15T05:20:41.871Z,23.30
2018-10-15T05:21:41.825Z,18.20
2018-10-15T05:22:41.846Z,16.90
2018-10-15T05:23:41.865Z,19.20
2018-10-15T05:24:41.887Z,19.30
2018-10-15T05:25:41.906Z,20.20
2018-10-15T05:26:41.927Z,18.70
2018-10-15T05:27:41.952Z,20.80
2018-10-15T05:28:41.967Z,16.10
2018-10-15T05:29:41.988Z,18.40
2018-10-15T05:30:42.062Z,17.10
2018-10-15T05:31:42.031Z,17.10
2018-10-15T05:32:42.049Z,18.10
2018-10-15T05:33:42.070Z,22.60
2018-10-15T05:34:42.090Z,24.50
2018-10-15T05:35:42.109Z,24.10
2018-10-15T05:36:42.203Z,24.90
2018-10-15T05:37:42.151Z,18.40
2018-10-15T05:38:42.172Z,19.80
2018-10-15T05:39:42.191Z,23.60
2018-10-15T05:40:42.212Z,23.10
2018-10-15T05:41:42.235Z,20.60
2018-10-15T05:42:42.253Z,18.20
2018-10-15T05:43:42.273Z,19.00
2018-10-15T05:44:42.293Z,18.00
2018-10-15T05:45:42.314Z,28.30
2018-10-15T05:46:42.384Z,26.90
2018-10-15T05:47:42.353Z,35.40
2018-10-15T05:48:42.376Z,30.80
2018-10-15T05:49:42.395Z,30.40
2018-10-15T05:50:42.416Z,25.20
2018-10-15T05:51:42.435Z,28.90
2018-10-15T05:52:42.456Z,25.30
2018-10-15T05:53:42.476Z,26.00
2018-10-15T05:54:42.499Z,35.00
2018-10-15T05:55:42.515Z,32.30
2018-10-15T05:56:42.536Z,25.00
2018-10-15T05:57:42.557Z,35.80
2018-10-15T05:58:42.578Z,31.90
2018-10-15T05:59:42.600Z,29.20
2018-10-15T06:00:42.668Z,27.00
2018-10-15T06:01:42.638Z,32.00
2018-10-15T06:02:42.658Z,38.40
2018-10-15T06:03:42.678Z,31.60
2018-10-15T06:04:42.699Z,34.10
2018-10-15T06:05:42.719Z,33.90
2018-10-15T06:06:42.740Z,32.70
2018-10-15T06:07:42.759Z,35.00
2018-10-15T06:08:42.780Z,27.90
2018-10-15T06:09:42.800Z,22.70
2018-10-15T06:10:42.827Z,31.00
2018-10-15T06:11:42.840Z,27.70
2018-10-15T06:12:42.934Z,27.40
2018-10-15T06:13:42.883Z,25.60
2018-10-15T06:14:42.905Z,25.70
2018-10-15T06:15:42.920Z,27.40
2018-10-15T06:16:42.943Z,25.70
2018-10-15T06:17:42.961Z,22.80
2018-10-15T06:18:42.982Z,24.70
2018-10-15T06:19:43.002Z,24.10
2018-10-15T06:20:43.122Z,22.90
2018-10-15T06:21:43.043Z,25.10
2018-10-15T06:22:43.087Z,22.30
2018-10-15T06:23:43.082Z,25.20
2018-10-15T06:24:43.149Z,19.30
2018-10-15T06:25:43.124Z,19.40
2018-10-15T06:26:43.144Z,23.50
2018-10-15T06:27:43.163Z,22.10
2018-10-15T06:28:43.183Z,24.50
2018-10-15T06:29:43.203Z,24.10
2018-10-15T06:30:43.224Z,25.70
2018-10-15T06:31:43.244Z,23.10
2018-10-15T06:32:43.268Z,22.20
2018-10-15T06:33:43.347Z,21.00
2018-10-15T06:34:43.305Z,21.80
2018-10-15T06:35:43.328Z,20.70
2018-10-15T06:36:43.345Z,23.20
2018-10-15T06:37:43.366Z,20.90
2018-10-15T06:38:43.386Z,23.20
2018-10-15T06:39:43.408Z,22.40
2018-10-15T06:40:43.426Z,25.90
2018-10-15T06:41:43.446Z,24.90
2018-10-15T06:42:43.467Z,23.10
2018-10-15T06:43:43.545Z,19.70
2018-10-15T06:44:43.507Z,24.40
2018-10-15T06:45:43.527Z,21.30
2018-10-15T06:46:43.548Z,23.20
2018-10-15T06:47:43.569Z,19.30
2018-10-15T06:48:43.615Z,21.30
2018-10-15T06:49:43.608Z,22.20
2018-10-15T06:50:43.630Z,19.20
2018-10-15T06:51:43.649Z,20.20
2018-10-15T06:52:43.670Z,22.90
2018-10-15T06:53:43.711Z,21.00
2018-10-15T06:54:43.710Z,23.60
2018-10-15T06:55:43.730Z,26.10
2018-10-15T06:56:43.751Z,24.50
2018-10-15T06:57:43.773Z,21.70
2018-10-15T06:58:43.791Z,24.40
2018-10-15T06:59:43.811Z,23.40
2018-10-15T07:00:43.832Z,29.90
2018-10-15T07:01:43.852Z,20.40
2018-10-15T07:02:43.873Z,22.20
2018-10-15T07:03:43.892Z,26.30
2018-10-15T07:04:43.915Z,26.50
2018-10-15T07:05:43.934Z,23.80
2018-10-15T07:06:43.954Z,23.20
2018-10-15T07:07:44.054Z,21.60
2018-10-15T07:08:43.994Z,23.50
2018-10-15T07:09:44.015Z,27.80
2018-10-15T07:10:44.035Z,36.50
2018-10-15T07:11:44.055Z,24.20
2018-10-15T07:12:44.076Z,22.30
2018-10-15T07:13:44.156Z,27.00
2018-10-15T07:14:44.370Z,25.10
2018-10-15T07:15:44.136Z,25.90
2018-10-15T07:16:44.157Z,25.00
2018-10-15T07:17:44.177Z,29.00
2018-10-15T07:18:44.197Z,25.30
2018-10-15T07:19:44.217Z,22.00
2018-10-15T07:20:44.362Z,19.40
2018-10-15T07:21:44.260Z,20.20
2018-10-15T07:22:44.278Z,23.30
2018-10-15T07:23:44.298Z,21.00
2018-10-15T07:24:44.319Z,30.00
2018-10-15T07:25:44.340Z,19.50
2018-10-15T07:26:44.361Z,18.50
2018-10-15T07:27:44.390Z,17.80
2018-10-15T07:28:44.407Z,19.30
2018-10-15T07:29:44.421Z,23.00
2018-10-15T07:30:44.442Z,21.40
2018-10-15T07:31:44.461Z,20.30
2018-10-15T07:32:44.482Z,19.90
2018-10-15T07:33:44.616Z,19.60
2018-10-15T07:34:44.523Z,23.50
2018-10-15T07:35:44.542Z,18.60
2018-10-15T07:36:44.563Z,20.70
2018-10-15T07:37:44.583Z,20.10
2018-10-15T07:38:44.605Z,22.00
2018-10-15T07:39:44.665Z,19.30
2018-10-15T07:40:44.646Z,20.90
2018-10-15T07:41:44.667Z,19.20
2018-10-15T07:42:44.686Z,18.90
2018-10-15T07:43:44.705Z,21.30
2018-10-15T07:44:44.727Z,18.40
2018-10-15T07:45:44.747Z,16.60
2018-10-15T07:46:44.889Z,18.10
2018-10-15T07:47:44.787Z,21.80
2018-10-15T07:48:44.809Z,17.30
2018-10-15T07:49:44.828Z,18.40
2018-10-15T07:50:44.849Z,17.30
2018-10-15T07:51:44.870Z,22.00
2018-10-15T07:52:44.890Z,18.30
2018-10-15T07:53:44.910Z,19.50
2018-10-15T07:54:44.931Z,19.70
2018-10-15T07:55:44.951Z,23.70
2018-10-15T07:56:44.972Z,20.30
2018-10-15T07:57:44.994Z,22.50
2018-10-15T07:58:45.014Z,22.80
2018-10-15T07:59:45.034Z,23.00
2018-10-15T08:00:45.059Z,18.90
2018-10-15T08:01:45.176Z,24.20
2018-10-15T08:02:45.097Z,20.40
2018-10-15T08:03:45.117Z,19.80
2018-10-15T08:04:45.143Z,19.10
2018-10-15T08:05:45.205Z,21.40
2018-10-15T08:06:45.180Z,18.50
2018-10-15T08:07:45.202Z,18.80
2018-10-15T08:08:45.311Z,24.20
2018-10-15T08:09:45.244Z,20.70
2018-10-15T08:10:45.264Z,17.10
2018-10-15T08:11:45.283Z,19.50
2018-10-15T08:12:45.305Z,16.30
2018-10-15T08:13:45.326Z,22.30
2018-10-15T08:14:45.432Z,23.10
2018-10-15T08:15:45.578Z,19.70
2018-10-15T08:16:45.389Z,21.30
2018-10-15T08:17:45.410Z,18.30
2018-10-15T08:18:45.432Z,19.00
2018-10-15T08:19:45.453Z,19.60
2018-10-15T08:20:45.613Z,20.30
2018-10-15T08:21:45.495Z,16.40
2018-10-15T08:22:45.517Z,16.10
2018-10-15T08:23:45.538Z,14.10
2018-10-15T08:24:45.559Z,14.20
2018-10-15T08:25:45.581Z,13.40
2018-10-15T08:26:45.602Z,14.80
2018-10-15T08:27:45.681Z,18.90
2018-10-15T08:28:45.652Z,19.80
2018-10-15T08:29:45.669Z,12.30
2018-10-15T08:30:45.690Z,15.60
2018-10-15T08:31:45.711Z,14.80
2018-10-15T08:32:45.732Z,14.50
2018-10-15T08:33:45.757Z,12.30
2018-10-15T08:34:45.856Z,18.50
2018-10-15T08:35:45.798Z,15.70
2018-10-15T08:36:45.821Z,16.40
2018-10-15T08:37:45.842Z,11.90
2018-10-15T08:38:45.865Z,11.10
2018-10-15T08:39:45.887Z,11.60
2018-10-15T08:40:45.910Z,14.40
2018-10-15T08:41:45.974Z,13.50
2018-10-15T08:42:45.955Z,12.20
2018-10-15T08:43:45.977Z,14.10
2018-10-15T08:44:45.999Z,11.50
2018-10-15T08:45:46.081Z,13.70
2018-10-15T08:46:46.044Z,16.60
2018-10-15T08:47:46.066Z,13.20
2018-10-15T08:48:46.090Z,18.00
2018-10-15T08:49:46.116Z,13.20
2018-10-15T08:50:46.144Z,13.50
2018-10-15T08:51:46.157Z,11.30
2018-10-15T08:52:46.265Z,11.50
2018-10-15T08:53:46.203Z,14.00
2018-10-15T08:54:46.226Z,9.70
2018-10-15T08:55:46.251Z,11.00
2018-10-15T08:56:46.285Z,12.20
2018-10-15T08:57:46.295Z,9.20
2018-10-15T08:58:46.318Z,10.70
2018-10-15T08:59:46.340Z,21.70
2018-10-15T09:00:46.373Z,14.10
2018-10-15T09:01:46.444Z,17.80
2018-10-15T09:02:46.529Z,19.50
2018-10-15T09:03:46.448Z,18.20
2018-10-15T09:04:46.471Z,17.90
2018-10-15T09:05:46.480Z,18.00
2018-10-15T09:06:46.512Z,13.20
2018-10-15T09:07:46.665Z,16.10
2018-10-15T09:08:46.749Z,15.80
2018-10-15T09:09:46.616Z,12.10
2018-10-15T09:10:46.617Z,15.30
2018-10-15T09:11:46.620Z,9.70
2018-10-15T09:12:46.717Z,11.40
2018-10-15T09:13:46.667Z,10.40
2018-10-15T09:14:46.782Z,10.00
2018-10-15T09:15:46.760Z,8.10
2018-10-15T09:16:46.737Z,8.30
2018-10-15T09:17:46.773Z,10.60
2018-10-15T09:18:46.844Z,11.30
2018-10-15T09:19:46.847Z,12.20
2018-10-15T09:20:46.882Z,12.00
2018-10-15T09:21:47.008Z,9.20
2018-10-15T09:22:46.880Z,11.50
2018-10-15T09:23:46.941Z,9.40
2018-10-15T09:24:46.991Z,12.80
2018-10-15T09:25:47.008Z,10.70
2018-10-15T09:26:47.044Z,10.90
2018-10-15T09:27:47.159Z,44.00
2018-10-15T09:28:47.023Z,26.80
2018-10-15T09:29:47.080Z,8.30
2018-10-15T09:30:47.121Z,12.30
2018-10-15T09:31:47.095Z,14.00
2018-10-15T09:32:47.151Z,9.80
2018-10-15T09:33:47.144Z,7.70
2018-10-15T09:34:47.178Z,9.40
2018-10-15T09:35:47.191Z,10.10
2018-10-15T09:36:47.234Z,8.80
2018-10-15T09:37:47.266Z,10.80
2018-10-15T09:38:47.284Z,8.50
2018-10-15T09:39:47.291Z,10.20
2018-10-15T09:40:47.337Z,9.80
2018-10-15T09:41:47.340Z,7.20
2018-10-15T09:42:47.563Z,12.20
2018-10-15T09:43:47.451Z,10.70
2018-10-15T09:44:47.452Z,6.80
2018-10-15T09:45:47.500Z,10.80
2018-10-15T09:46:47.516Z,9.90
2018-10-15T09:47:47.483Z,13.70
2018-10-15T09:48:47.529Z,7.60
2018-10-15T09:49:47.549Z,11.10
2018-10-15T09:50:47.580Z,9.20
2018-10-15T09:51:47.582Z,10.10
2018-10-15T09:52:47.617Z,7.10
2018-10-15T09:53:47.635Z,8.70
2018-10-15T09:54:47.710Z,9.40
2018-10-15T09:55:47.680Z,7.90
2018-10-15T09:56:47.724Z,7.90
2018-10-15T09:57:47.771Z,9.10
2018-10-15T09:58:47.782Z,8.60
2018-10-15T09:59:47.779Z,9.70
2018-10-15T10:00:47.820Z,8.20
2018-10-15T10:01:47.866Z,9.00
2018-10-15T10:02:47.866Z,8.70
2018-10-15T10:03:47.879Z,7.60
2018-10-15T10:04:47.922Z,10.60
2018-10-15T10:05:47.933Z,9.10
2018-10-15T10:06:48.016Z,7.90
2018-10-15T10:07:48.036Z,9.70
2018-10-15T10:08:48.022Z,9.60
2018-10-15T10:09:48.029Z,12.30
2018-10-15T10:10:48.067Z,9.40
2018-10-15T10:11:48.079Z,9.50
2018-10-15T10:12:48.161Z,10.50
2018-10-15T10:13:48.131Z,11.10
2018-10-15T10:14:48.201Z,9.80
2018-10-15T10:15:48.179Z,8.60
2018-10-15T10:16:48.214Z,8.70
2018-10-15T10:17:48.383Z,8.90
2018-10-15T10:18:48.290Z,8.50
2018-10-15T10:19:48.285Z,6.80
2018-10-15T10:20:48.356Z,7.90
2018-10-15T10:21:48.343Z,8.80
2018-10-15T10:22:48.407Z,7.10
2018-10-15T10:23:48.410Z,8.00
2018-10-15T10:24:48.484Z,8.50
2018-10-15T10:25:48.463Z,8.20
2018-10-15T10:26:48.472Z,8.70
2018-10-15T10:27:48.483Z,7.00
2018-10-15T10:28:48.740Z,13.70
2018-10-15T10:29:48.618Z,9.00
2018-10-15T10:30:48.569Z,8.10
2018-10-15T10:31:48.585Z,8.20
2018-10-15T10:32:48.680Z,8.60
2018-10-15T10:33:48.634Z,11.30
2018-10-15T10:34:48.691Z,8.00
2018-10-15T10:35:48.751Z,7.90
2018-10-15T10:36:49.073Z,8.00
2018-10-15T10:37:48.746Z,9.10
2018-10-15T10:38:48.805Z,8.10
2018-10-15T10:39:48.874Z,8.60
2018-10-15T10:40:48.834Z,9.70
2018-10-15T10:41:48.968Z,9.30
2018-10-15T10:42:48.863Z,7.50
2018-10-15T10:43:48.888Z,7.60
2018-10-15T10:44:48.940Z,7.10
2018-10-15T10:45:48.948Z,8.80
2018-10-15T10:46:48.964Z,8.50
2018-10-15T10:47:48.989Z,6.90
2018-10-15T10:48:49.015Z,7.90
2018-10-15T10:49:49.041Z,7.90
2018-10-15T10:50:49.071Z,9.10
2018-10-15T10:51:49.092Z,9.30
2018-10-15T10:52:49.118Z,9.80
2018-10-15T10:53:49.143Z,9.30
2018-10-15T10:54:49.169Z,8.20
2018-10-15T10:55:49.194Z,9.70
2018-10-15T10:56:49.219Z,9.60
2018-10-15T10:57:49.251Z,8.30
2018-10-15T10:58:49.445Z,7.40
2018-10-15T10:59:49.296Z,12.00
2018-10-15T11:00:49.321Z,8.60
2018-10-15T11:01:49.357Z,6.50
2018-10-15T11:02:49.384Z,8.00
2018-10-15T11:03:49.400Z,8.10
2018-10-15T11:04:49.428Z,9.00
2018-10-15T11:05:49.543Z,7.20
2018-10-15T11:06:49.476Z,8.20
2018-10-15T11:07:49.554Z,10.10
2018-10-15T11:08:49.526Z,25.90
2018-10-15T11:09:49.554Z,12.80
2018-10-15T11:10:49.579Z,10.40
2018-10-15T11:11:49.607Z,27.40
2018-10-15T11:12:49.629Z,10.40
2018-10-15T11:13:49.656Z,10.00
2018-10-15T11:14:49.683Z,7.10
2018-10-15T11:15:49.713Z,7.50
2018-10-15T11:16:49.733Z,8.20
2018-10-15T11:17:49.760Z,7.50
2018-10-15T11:18:49.938Z,9.30
2018-10-15T11:19:49.810Z,8.10
2018-10-15T11:20:49.840Z,8.30
2018-10-15T11:21:49.862Z,6.60
2018-10-15T11:22:49.889Z,7.60
2018-10-15T11:23:49.913Z,5.20
2018-10-15T11:24:49.940Z,8.30
2018-10-15T11:25:49.965Z,6.30
2018-10-15T11:26:49.991Z,7.70
2018-10-15T11:27:50.016Z,6.80
2018-10-15T11:28:50.043Z,11.60
2018-10-15T11:29:50.520Z,18.30
2018-10-15T11:30:50.096Z,7.20
2018-10-15T11:31:50.120Z,6.80
2018-10-15T11:32:50.146Z,7.30
2018-10-15T11:33:50.172Z,8.30
2018-10-15T11:34:50.201Z,9.90
2018-10-15T11:35:50.224Z,8.20
2018-10-15T11:36:50.250Z,6.90
2018-10-15T11:37:50.276Z,10.50
2018-10-15T11:38:50.302Z,8.80
2018-10-15T11:39:50.327Z,8.00
2018-10-15T11:40:50.353Z,7.70
2018-10-15T11:41:50.380Z,7.90
2018-10-15T11:42:50.406Z,9.10
2018-10-15T11:43:50.479Z,7.50
2018-10-15T11:44:50.507Z,7.20
2018-10-15T11:45:50.484Z,9.00
2018-10-15T11:46:50.519Z,11.50
2018-10-15T11:47:50.537Z,6.80
2018-10-15T11:48:50.565Z,7.00
2018-10-15T11:49:50.622Z,8.90
2018-10-15T11:50:50.617Z,9.30
2018-10-15T11:51:50.640Z,9.20
2018-10-15T11:52:50.667Z,7.60
2018-10-15T11:53:50.710Z,7.70
2018-10-15T11:54:50.768Z,11.70
2018-10-15T11:55:50.743Z,8.00
2018-10-15T11:56:50.770Z,8.20
2018-10-15T11:57:50.796Z,7.80
2018-10-15T11:58:50.917Z,6.50
2018-10-15T11:59:51.002Z,9.50
2018-10-15T12:00:50.881Z,9.70
2018-10-15T12:01:50.901Z,9.30
2018-10-15T12:02:50.927Z,5.50
2018-10-15T12:03:50.952Z,6.40
2018-10-15T12:04:50.978Z,17.30
2018-10-15T12:05:51.005Z,6.50
2018-10-15T12:06:51.040Z,9.30
2018-10-15T12:07:51.057Z,6.60
2018-10-15T12:08:51.083Z,13.90
2018-10-15T12:09:51.115Z,8.40
2018-10-15T12:10:51.139Z,5.80
2018-10-15T12:11:51.161Z,7.10
2018-10-15T12:12:51.187Z,6.50
2018-10-15T12:13:51.312Z,6.90
2018-10-15T12:14:51.240Z,7.40
2018-10-15T12:15:51.265Z,7.80
2018-10-15T12:16:51.358Z,7.00
2018-10-15T12:17:51.317Z,9.00
2018-10-15T12:18:51.346Z,9.90
2018-10-15T12:19:51.371Z,8.50
2018-10-15T12:20:51.395Z,8.00
2018-10-15T12:21:51.422Z,6.70
2018-10-15T12:22:51.447Z,8.30
2018-10-15T12:23:51.473Z,7.90
2018-10-15T12:24:51.499Z,10.40
2018-10-15T12:25:51.525Z,6.50
2018-10-15T12:26:51.551Z,8.00
2018-10-15T12:27:51.579Z,8.80
2018-10-15T12:28:51.603Z,8.40
2018-10-15T12:29:51.636Z,9.70
2018-10-15T12:30:51.656Z,7.60
2018-10-15T12:31:51.681Z,9.40
2018-10-15T12:32:51.707Z,8.10
2018-10-15T12:33:51.734Z,6.40
2018-10-15T12:34:51.760Z,8.80
2018-10-15T12:35:51.785Z,6.60
2018-10-15T12:36:51.812Z,9.40
2018-10-15T12:37:51.838Z,8.60
2018-10-15T12:38:51.866Z,7.20
2018-10-15T12:39:51.890Z,6.70
2018-10-15T12:40:51.916Z,8.30
2018-10-15T12:41:52.092Z,6.70
2018-10-15T12:42:51.968Z,8.20
2018-10-15T12:43:51.993Z,6.80
2018-10-15T12:44:52.023Z,8.60
2018-10-15T12:45:52.046Z,6.20
2018-10-15T12:46:52.073Z,8.30
2018-10-15T12:47:52.098Z,7.80
2018-10-15T12:48:52.124Z,7.80
2018-10-15T12:49:52.451Z,7.70
2018-10-15T12:50:52.178Z,8.20
2018-10-15T12:51:52.203Z,8.70
2018-10-15T12:52:52.228Z,8.30
2018-10-15T12:53:52.379Z,10.40
2018-10-15T12:54:52.281Z,7.00
2018-10-15T12:55:52.306Z,8.60
2018-10-15T12:56:52.333Z,11.00
2018-10-15T12:57:52.358Z,9.60
2018-10-15T12:58:52.385Z,14.60
2018-10-15T12:59:52.410Z,7.20